createdAt,value
2022-09-07T00:00:00.418Z,64.5
2022-09-07T00:01:00.302Z,64.7
2022-09-07T00:02:00.368Z,65.0
2022-09-07T00:03:00.851Z,65.3
2022-09-07T00:04:00.426Z,65.1
2022-09-07T00:05:00.331Z,65.1
2022-09-07T00:06:05.663Z,65.5
2022-09-07T00:07:00.264Z,64.9
2022-09-07T00:08:00.362Z,65.1
2022-09-07T00:09:01.427Z,64.8
2022-09-07T00:10:00.331Z,64.9
2022-09-07T00:11:02.911Z,64.9
2022-09-07T00:12:00.413Z,65.2
2022-09-07T00:13:00.501Z,64.8
2022-09-07T00:14:00.347Z,65.2
2022-09-07T00:15:00.533Z,64.7
2022-09-07T00:16:07.937Z,64.9
2022-09-07T00:17:00.272Z,64.9
2022-09-07T00:18:00.286Z,64.8
2022-09-07T00:19:04.193Z,64.9
2022-09-07T00:20:00.597Z,64.7
2022-09-07T00:21:03.662Z,65.1
2022-09-07T00:22:00.367Z,65.0
2022-09-07T00:23:00.287Z,65.0
2022-09-07T00:24:00.305Z,65.1
2022-09-07T00:25:00.518Z,65.5
2022-09-07T00:26:05.132Z,65.9
2022-09-07T00:27:00.362Z,65.8
2022-09-07T00:28:00.383Z,65.5
2022-09-07T00:29:02.693Z,65.5
2022-09-07T00:30:00.294Z,65.6
2022-09-07T00:31:00.823Z,65.6
2022-09-07T00:32:00.385Z,65.5
2022-09-07T00:33:00.306Z,66.0
2022-09-07T00:34:00.991Z,65.7
2022-09-07T00:35:00.348Z,65.9
2022-09-07T00:36:00.488Z,65.9
2022-09-07T00:37:00.296Z,66.0
2022-09-07T00:38:00.305Z,65.8
2022-09-07T00:39:00.283Z,65.7
2022-09-07T00:40:00.569Z,65.4
2022-09-07T00:41:00.352Z,65.9
2022-09-07T00:42:00.658Z,65.6
2022-09-07T00:43:00.374Z,65.7
2022-09-07T00:44:20.136Z,67.0
2022-09-07T00:45:13.827Z,66.1
2022-09-07T00:46:02.076Z,66.1
2022-09-07T00:47:00.550Z,66.0
2022-09-07T00:48:08.111Z,66.3
2022-09-07T00:49:10.269Z,66.1
2022-09-07T00:50:06.097Z,66.1
2022-09-07T00:51:05.674Z,66.3
2022-09-07T00:52:05.056Z,66.3
2022-09-07T00:53:11.240Z,66.1
2022-09-07T00:54:04.964Z,66.0
2022-09-07T00:55:05.238Z,66.3
2022-09-07T00:56:01.836Z,66.5
2022-09-07T00:57:00.419Z,66.2
2022-09-07T00:58:01.067Z,66.2
2022-09-07T00:59:00.782Z,66.4
2022-09-07T01:00:00.461Z,66.3
2022-09-07T01:01:00.510Z,66.3
2022-09-07T01:02:01.255Z,66.3
2022-09-07T01:03:01.822Z,66.3
2022-09-07T01:04:01.897Z,66.8
2022-09-07T01:05:14.800Z,66.6
2022-09-07T01:06:10.402Z,66.6
2022-09-07T01:07:01.770Z,66.3
2022-09-07T01:08:00.446Z,66.5
2022-09-07T01:09:03.092Z,66.5
2022-09-07T01:10:00.692Z,66.5
2022-09-07T01:11:00.480Z,66.5
2022-09-07T01:12:01.437Z,66.9
2022-09-07T01:13:00.852Z,66.8
2022-09-07T01:14:02.269Z,66.9
2022-09-07T01:15:00.724Z,67.0
2022-09-07T01:16:00.342Z,67.0
2022-09-07T01:17:09.509Z,67.1
2022-09-07T01:18:09.758Z,67.2
2022-09-07T01:19:15.164Z,67.2
2022-09-07T01:20:20.160Z,67.5
2022-09-07T01:21:18.249Z,67.4
2022-09-07T01:22:10.193Z,67.4
2022-09-07T01:23:20.132Z,67.6
2022-09-07T01:24:20.130Z,68.1
2022-09-07T01:25:12.184Z,67.7
2022-09-07T01:26:10.213Z,67.7
2022-09-07T01:27:20.127Z,68.3
2022-09-07T01:28:11.166Z,68.3
2022-09-07T01:29:10.551Z,68.1
2022-09-07T01:30:07.072Z,67.9
2022-09-07T01:31:13.631Z,68.2
2022-09-07T01:32:17.593Z,68.2
2022-09-07T01:33:11.195Z,68.2
2022-09-07T01:34:09.943Z,68.1
2022-09-07T01:35:03.782Z,68.1
2022-09-07T01:36:17.634Z,68.6
2022-09-07T01:37:20.128Z,68.8
2022-09-07T01:38:11.995Z,69.0
2022-09-07T01:39:03.260Z,69.0
2022-09-07T01:40:20.128Z,68.7
2022-09-07T01:41:11.205Z,68.7
2022-09-07T01:42:07.349Z,68.5
2022-09-07T01:43:05.891Z,68.7
2022-09-07T01:44:10.744Z,68.9
2022-09-07T01:45:02.570Z,68.8
2022-09-07T01:46:04.369Z,68.8
2022-09-07T01:47:14.217Z,68.8
2022-09-07T01:48:04.314Z,68.8
2022-09-07T01:49:07.353Z,68.9
2022-09-07T01:50:08.123Z,68.8
2022-09-07T01:51:03.174Z,69.1
2022-09-07T01:52:06.361Z,69.1
2022-09-07T01:53:20.146Z,68.8
2022-09-07T01:54:08.706Z,68.8
2022-09-07T01:55:12.582Z,68.7
2022-09-07T01:56:09.134Z,68.7
2022-09-07T01:57:07.087Z,69.1
2022-09-07T01:58:15.960Z,68.5
2022-09-07T01:59:04.684Z,68.5
2022-09-07T02:00:08.406Z,68.5
2022-09-07T02:01:07.189Z,68.7
2022-09-07T02:02:06.158Z,68.1
2022-09-07T02:03:12.137Z,68.7
2022-09-07T02:04:13.583Z,68.4
2022-09-07T02:05:06.712Z,68.4
2022-09-07T02:06:09.815Z,68.1
2022-09-07T02:07:11.246Z,68.3
2022-09-07T02:08:12.260Z,68.1
2022-09-07T02:09:05.843Z,68.1
2022-09-07T02:10:12.013Z,68.5
2022-09-07T02:11:06.376Z,68.5
2022-09-07T02:12:07.043Z,68.3
2022-09-07T02:13:07.074Z,68.6
2022-09-07T02:14:04.305Z,68.2
2022-09-07T02:15:05.723Z,68.1
2022-09-07T02:16:04.808Z,67.8
2022-09-07T02:17:07.422Z,67.9
2022-09-07T02:18:04.265Z,68.0
2022-09-07T02:19:05.246Z,68.0
2022-09-07T02:20:14.164Z,68.2
2022-09-07T02:21:01.697Z,68.2
2022-09-07T02:22:07.529Z,68.4
2022-09-07T02:23:04.867Z,67.9
2022-09-07T02:24:05.177Z,68.0
2022-09-07T02:25:03.547Z,67.9
2022-09-07T02:26:05.018Z,68.1
2022-09-07T02:27:08.057Z,68.0
2022-09-07T02:28:08.641Z,68.0
2022-09-07T02:29:00.377Z,67.9
2022-09-07T02:30:00.569Z,67.8
2022-09-07T02:31:00.796Z,68.5
2022-09-07T02:32:00.308Z,68.1
2022-09-07T02:33:00.399Z,67.7
2022-09-07T02:34:00.352Z,67.9
2022-09-07T02:35:00.553Z,68.1
2022-09-07T02:36:01.368Z,67.9
2022-09-07T02:37:03.739Z,68.1
2022-09-07T02:38:04.247Z,68.4
2022-09-07T02:39:00.508Z,67.9
2022-09-07T02:40:00.631Z,67.7
2022-09-07T02:41:01.632Z,68.3
2022-09-07T02:42:00.360Z,67.9
2022-09-07T02:43:04.356Z,67.8
2022-09-07T02:44:04.935Z,67.8
2022-09-07T02:45:04.665Z,68.0
2022-09-07T02:46:19.596Z,67.8
2022-09-07T02:47:11.225Z,67.8
2022-09-07T02:48:13.409Z,67.3
2022-09-07T02:49:20.149Z,67.9
2022-09-07T02:50:20.151Z,67.7
2022-09-07T02:51:13.892Z,68.1
2022-09-07T02:52:20.128Z,68.3
2022-09-07T02:53:16.964Z,68.2
2022-09-07T02:54:11.601Z,68.2
2022-09-07T02:55:09.954Z,68.1
2022-09-07T02:56:13.747Z,67.8
2022-09-07T02:57:17.868Z,67.6
2022-09-07T02:58:18.815Z,67.9
2022-09-07T02:59:12.630Z,67.9
2022-09-07T03:00:12.179Z,67.9
2022-09-07T03:01:07.503Z,67.9
2022-09-07T03:02:06.253Z,68.2
2022-09-07T03:03:20.128Z,67.6
2022-09-07T03:04:10.173Z,67.6
2022-09-07T03:05:20.155Z,68.1
2022-09-07T03:06:06.417Z,68.1
2022-09-07T03:07:11.139Z,67.8
2022-09-07T03:08:04.643Z,67.6
2022-09-07T03:09:08.849Z,67.7
2022-09-07T03:10:03.705Z,67.9
2022-09-07T03:11:02.595Z,67.7
2022-09-07T03:12:03.535Z,67.9
2022-09-07T03:13:00.254Z,67.8
2022-09-07T03:14:12.151Z,68.1
2022-09-07T03:15:00.224Z,68.1
2022-09-07T03:16:00.565Z,67.7
2022-09-07T03:17:01.080Z,68.3
2022-09-07T03:18:00.224Z,68.8
2022-09-07T03:19:00.226Z,67.9
2022-09-07T03:20:00.232Z,68.2
2022-09-07T03:21:00.366Z,70.0
2022-09-07T03:22:00.293Z,68.3
2022-09-07T03:23:00.705Z,68.2
2022-09-07T03:24:00.864Z,68.9
2022-09-07T03:25:00.290Z,68.4
2022-09-07T03:26:00.230Z,68.5
2022-09-07T03:27:00.226Z,68.1
2022-09-07T03:28:00.232Z,68.5
2022-09-07T03:29:00.251Z,68.8
2022-09-07T03:30:00.447Z,68.8
2022-09-07T03:31:00.536Z,68.7
2022-09-07T03:32:00.268Z,68.8
2022-09-07T03:33:00.385Z,68.6
2022-09-07T03:34:00.438Z,68.3
2022-09-07T03:35:00.974Z,68.9
2022-09-07T03:36:00.623Z,68.8
2022-09-07T03:37:00.214Z,69.0
2022-09-07T03:38:00.267Z,69.2
2022-09-07T03:39:00.329Z,69.1
2022-09-07T03:40:00.450Z,69.2
2022-09-07T03:41:01.981Z,69.4
2022-09-07T03:42:00.214Z,69.3
2022-09-07T03:43:00.318Z,69.6
2022-09-07T03:44:02.844Z,69.7
2022-09-07T03:45:00.281Z,69.6
2022-09-07T03:46:02.781Z,69.6
2022-09-07T03:47:00.483Z,69.4
2022-09-07T03:48:00.301Z,69.5
2022-09-07T03:49:00.302Z,69.4
2022-09-07T03:50:00.420Z,69.3
2022-09-07T03:51:04.412Z,69.3
2022-09-07T03:52:01.039Z,69.5
2022-09-07T03:53:00.230Z,69.8
2022-09-07T03:54:00.233Z,70.2
2022-09-07T03:55:00.242Z,69.6
2022-09-07T03:56:03.130Z,69.5
2022-09-07T03:57:00.276Z,69.8
2022-09-07T03:58:00.219Z,69.2
2022-09-07T03:59:00.593Z,69.2
2022-09-07T04:00:00.254Z,69.2
2022-09-07T04:01:05.909Z,69.5
2022-09-07T04:02:00.782Z,68.7
2022-09-07T04:03:00.226Z,69.1
2022-09-07T04:04:02.434Z,69.0
2022-09-07T04:05:00.281Z,68.8
2022-09-07T04:06:01.261Z,68.2
2022-09-07T04:07:00.237Z,68.3
2022-09-07T04:08:00.449Z,68.3
2022-09-07T04:09:02.521Z,68.4
2022-09-07T04:10:00.256Z,68.3
2022-09-07T04:11:02.632Z,69.3
2022-09-07T04:12:00.496Z,68.8
2022-09-07T04:13:00.215Z,68.3
2022-09-07T04:14:00.372Z,68.6
2022-09-07T04:15:00.226Z,68.6
2022-09-07T04:16:08.387Z,68.4
2022-09-07T04:17:00.356Z,67.7
2022-09-07T04:18:00.577Z,67.6
2022-09-07T04:19:00.622Z,67.4
2022-09-07T04:20:00.306Z,68.2
2022-09-07T04:21:00.285Z,68.3
2022-09-07T04:22:00.223Z,67.6
2022-09-07T04:23:00.245Z,67.5
2022-09-07T04:24:00.335Z,67.9
2022-09-07T04:25:00.270Z,67.9
2022-09-07T04:26:00.236Z,67.2
2022-09-07T04:27:00.257Z,67.8
2022-09-07T04:28:00.531Z,67.5
2022-09-07T04:29:00.640Z,67.8
2022-09-07T04:30:00.245Z,68.0
2022-09-07T04:31:01.570Z,67.6
2022-09-07T04:32:00.356Z,67.7
2022-09-07T04:33:00.216Z,68.0
2022-09-07T04:34:01.072Z,67.5
2022-09-07T04:35:00.264Z,67.9
2022-09-07T04:36:00.980Z,67.6
2022-09-07T04:37:00.234Z,66.9
2022-09-07T04:38:00.231Z,66.8
2022-09-07T04:39:02.686Z,66.7
2022-09-07T04:40:00.369Z,66.7
2022-09-07T04:41:01.919Z,67.2
2022-09-07T04:42:00.270Z,66.5
2022-09-07T04:43:00.403Z,66.3
2022-09-07T04:44:02.734Z,66.3
2022-09-07T04:45:00.310Z,65.9
2022-09-07T04:46:02.183Z,66.0
2022-09-07T04:47:00.213Z,65.9
2022-09-07T04:48:00.329Z,65.5
2022-09-07T04:49:03.011Z,65.8
2022-09-07T04:50:00.263Z,65.8
2022-09-07T04:51:09.205Z,65.6
2022-09-07T04:52:00.313Z,65.5
2022-09-07T04:53:00.225Z,65.6
2022-09-07T04:54:01.549Z,65.6
2022-09-07T04:55:00.268Z,65.1
2022-09-07T04:56:00.346Z,64.9
2022-09-07T04:57:00.252Z,65.3
2022-09-07T04:58:00.245Z,64.8
2022-09-07T04:59:01.244Z,65.2
2022-09-07T05:00:00.356Z,64.7
2022-09-07T05:01:01.586Z,64.4
2022-09-07T05:02:00.266Z,64.5
2022-09-07T05:03:00.223Z,64.8
2022-09-07T05:04:01.060Z,65.6
2022-09-07T05:05:02.786Z,64.8
2022-09-07T05:06:00.940Z,64.8
2022-09-07T05:07:00.258Z,64.5
2022-09-07T05:08:00.314Z,64.1
2022-09-07T05:09:00.250Z,63.9
2022-09-07T05:10:00.377Z,63.3
2022-09-07T05:11:00.233Z,63.5
2022-09-07T05:12:00.370Z,63.6
2022-09-07T05:13:00.224Z,63.4
2022-09-07T05:14:01.746Z,63.0
2022-09-07T05:15:00.232Z,63.5
2022-09-07T05:16:07.621Z,63.0
2022-09-07T05:17:00.354Z,62.5
2022-09-07T05:18:00.247Z,62.7
2022-09-07T05:19:02.018Z,63.2
2022-09-07T05:20:00.323Z,64.4
2022-09-07T05:21:12.136Z,63.4
2022-09-07T05:22:00.281Z,63.4
2022-09-07T05:23:00.299Z,62.9
2022-09-07T05:24:01.009Z,63.0
2022-09-07T05:25:00.246Z,63.1
2022-09-07T05:26:00.280Z,63.0
2022-09-07T05:27:00.223Z,62.8
2022-09-07T05:28:00.388Z,62.4
2022-09-07T05:31:18.041Z,62.3
2022-09-07T05:32:00.316Z,62.2
2022-09-07T05:33:00.225Z,62.1
2022-09-07T05:34:30.767Z,62.5
2022-09-07T05:35:00.311Z,62.4
2022-09-07T05:36:00.526Z,61.2
2022-09-07T05:37:02.388Z,61.2
2022-09-07T05:38:00.254Z,61.8
2022-09-07T05:39:00.281Z,60.9
2022-09-07T05:40:00.389Z,61.7
2022-09-07T05:41:00.577Z,60.8
2022-09-07T05:42:00.229Z,60.1
2022-09-07T05:43:00.221Z,59.5
2022-09-07T05:45:00.485Z,58.5
2022-09-07T05:46:00.277Z,58.2
2022-09-07T05:47:00.215Z,58.5
2022-09-07T05:48:00.408Z,58.5
2022-09-07T05:49:00.209Z,59.0
2022-09-07T05:50:00.257Z,58.6
2022-09-07T05:51:00.360Z,59.0
2022-09-07T05:52:00.237Z,58.3
2022-09-07T05:53:00.501Z,58.4
2022-09-07T05:54:00.221Z,58.5
2022-09-07T05:55:19.372Z,58.5
2022-09-07T05:56:04.018Z,58.1
2022-09-07T05:57:00.262Z,58.0
2022-09-07T05:58:00.235Z,58.9
2022-09-07T05:59:00.226Z,58.1
2022-09-07T06:00:00.345Z,57.9
2022-09-07T06:01:03.019Z,58.1
2022-09-07T06:02:00.396Z,58.7
2022-09-07T06:03:00.388Z,58.5
2022-09-07T06:04:00.436Z,57.3
2022-09-07T06:05:00.216Z,57.6
2022-09-07T06:06:01.181Z,56.5
2022-09-07T06:07:22.742Z,56.4
2022-09-07T06:08:00.328Z,55.6
2022-09-07T06:09:00.260Z,56.0
2022-09-07T06:11:09.383Z,55.7
2022-09-07T06:12:00.310Z,55.4
2022-09-07T06:13:00.485Z,54.9
2022-09-07T06:14:00.215Z,54.6
2022-09-07T06:15:00.461Z,54.4
2022-09-07T06:16:01.823Z,54.8
2022-09-07T06:17:00.291Z,54.8
2022-09-07T06:18:00.282Z,54.8
2022-09-07T06:19:04.339Z,54.4
2022-09-07T06:20:00.343Z,54.7
2022-09-07T06:21:02.408Z,55.1
2022-09-07T06:22:00.243Z,54.8
2022-09-07T06:23:00.219Z,54.3
2022-09-07T06:24:00.262Z,53.8
2022-09-07T06:25:00.238Z,54.5
2022-09-07T06:26:00.622Z,53.7
2022-09-07T06:27:00.224Z,54.5
2022-09-07T06:28:00.225Z,54.5
2022-09-07T06:29:01.128Z,55.0
2022-09-07T06:30:00.234Z,55.6
2022-09-07T06:31:03.021Z,55.5
2022-09-07T06:33:00.221Z,55.2
2022-09-07T06:34:00.357Z,55.6
2022-09-07T06:35:00.238Z,55.3
2022-09-07T06:36:04.177Z,55.3
2022-09-07T06:37:00.204Z,56.5
2022-09-07T06:38:00.227Z,56.5
2022-09-07T06:39:00.297Z,56.4
2022-09-07T06:40:00.426Z,56.1
2022-09-07T06:42:00.431Z,55.1
2022-09-07T06:43:00.209Z,55.3
2022-09-07T06:44:00.326Z,55.6
2022-09-07T06:45:00.257Z,55.7
2022-09-07T06:48:00.213Z,55.1
2022-09-07T06:49:00.215Z,55.5
2022-09-07T06:50:00.218Z,54.9
2022-09-07T06:51:03.253Z,55.0
2022-09-07T06:52:00.311Z,54.4
2022-09-07T06:55:00.803Z,54.3
2022-09-07T06:56:03.962Z,55.0
2022-09-07T06:57:00.242Z,54.9
2022-09-07T06:58:00.255Z,55.0
2022-09-07T06:59:00.221Z,55.0
2022-09-07T07:00:00.237Z,55.0
2022-09-07T07:01:05.966Z,54.9
2022-09-07T07:02:00.380Z,55.2
2022-09-07T07:03:00.298Z,54.8
2022-09-07T07:04:00.496Z,54.6
2022-09-07T07:05:00.225Z,54.6
2022-09-07T07:06:00.241Z,54.2
2022-09-07T07:07:00.252Z,53.6
2022-09-07T07:08:00.242Z,54.1
2022-09-07T07:09:00.959Z,52.9
2022-09-07T07:10:00.218Z,54.6
2022-09-07T07:11:06.345Z,55.7
2022-09-07T07:12:00.319Z,55.1
2022-09-07T07:13:00.230Z,54.0
2022-09-07T07:14:00.217Z,53.8
2022-09-07T07:15:00.243Z,53.9
2022-09-07T07:16:05.463Z,54.7
2022-09-07T07:17:00.262Z,54.6
2022-09-07T07:18:14.801Z,54.5
2022-09-07T07:19:00.248Z,54.6
2022-09-07T07:20:00.252Z,54.2
2022-09-07T07:21:01.331Z,54.4
2022-09-07T07:22:46.226Z,54.4
2022-09-07T07:23:00.226Z,54.7
2022-09-07T07:24:02.944Z,55.9
2022-09-07T07:25:00.242Z,55.8
2022-09-07T07:26:03.979Z,54.3
2022-09-07T07:27:00.240Z,55.2
2022-09-07T07:29:00.503Z,54.6
2022-09-07T07:30:00.260Z,55.0
2022-09-07T07:31:05.971Z,55.0
2022-09-07T07:32:00.337Z,54.4
2022-09-07T07:33:00.287Z,53.3
2022-09-07T07:34:00.396Z,53.3
2022-09-07T07:35:00.214Z,52.7
2022-09-07T07:36:09.566Z,52.2
2022-09-07T07:37:00.229Z,51.6
2022-09-07T07:39:01.258Z,50.6
2022-09-07T07:40:16.970Z,51.1
2022-09-07T07:42:03.318Z,52.0
2022-09-07T07:43:00.223Z,51.9
2022-09-07T07:44:00.584Z,51.1
2022-09-07T07:46:02.640Z,50.8
2022-09-07T07:47:00.368Z,49.9
2022-09-07T07:48:00.262Z,50.2
2022-09-07T07:49:00.221Z,50.0
2022-09-07T07:50:32.226Z,49.7
2022-09-07T07:51:09.843Z,49.8
2022-09-07T07:54:00.422Z,52.1
2022-09-07T07:55:00.968Z,53.5
2022-09-07T07:56:00.964Z,54.5
2022-09-07T07:57:00.227Z,54.0
2022-09-07T07:58:00.219Z,53.9
2022-09-07T07:59:00.345Z,54.7
2022-09-07T08:00:00.413Z,54.8
2022-09-07T08:01:03.855Z,54.6
2022-09-07T08:02:00.365Z,54.2
2022-09-07T08:03:00.532Z,52.8
2022-09-07T08:04:00.322Z,52.3
2022-09-07T08:05:00.259Z,53.1
2022-09-07T08:06:11.381Z,53.6
2022-09-07T08:07:03.471Z,53.5
2022-09-07T08:08:00.313Z,53.6
2022-09-07T08:09:00.214Z,54.0
2022-09-07T08:10:00.346Z,53.2
2022-09-07T08:11:05.022Z,52.6
2022-09-07T08:12:00.338Z,53.0
2022-09-07T08:13:00.230Z,51.9
2022-09-07T08:14:00.287Z,52.6
2022-09-07T08:15:00.648Z,52.9
2022-09-07T08:16:00.467Z,53.3
2022-09-07T08:17:00.254Z,52.4
2022-09-07T08:18:00.214Z,51.0
2022-09-07T08:19:00.255Z,51.0
2022-09-07T08:20:00.303Z,51.4
2022-09-07T08:21:01.817Z,51.2
2022-09-07T08:22:00.218Z,50.1
2022-09-07T08:23:00.210Z,50.0
2022-09-07T08:24:00.390Z,49.2
2022-09-07T08:25:00.227Z,49.3
2022-09-07T08:26:00.633Z,48.8
2022-09-07T08:27:00.593Z,48.6
2022-09-07T08:28:00.461Z,48.9
2022-09-07T08:29:00.226Z,49.2
2022-09-07T08:30:00.633Z,49.3
2022-09-07T08:31:04.924Z,50.0
2022-09-07T08:32:00.393Z,50.5
2022-09-07T08:33:00.254Z,50.5
2022-09-07T08:34:00.231Z,50.3
2022-09-07T08:35:00.310Z,49.9
2022-09-07T08:36:02.415Z,50.0
2022-09-07T08:37:00.233Z,49.6
2022-09-07T08:38:00.224Z,50.3
2022-09-07T08:39:00.345Z,49.5
2022-09-07T08:40:00.496Z,50.1
2022-09-07T08:41:02.066Z,49.9
2022-09-07T08:42:14.777Z,49.9
2022-09-07T08:43:13.432Z,49.9
2022-09-07T08:44:04.720Z,49.9
2022-09-07T08:45:07.475Z,51.0
2022-09-07T08:46:15.428Z,51.1
2022-09-07T08:47:10.188Z,51.1
2022-09-07T08:48:03.456Z,50.9
2022-09-07T08:49:03.463Z,50.5
2022-09-07T08:50:04.236Z,50.9
2022-09-07T08:51:07.945Z,50.6
2022-09-07T08:52:04.345Z,50.7
2022-09-07T08:53:11.132Z,49.7
2022-09-07T08:54:00.628Z,49.4
2022-09-07T08:55:09.470Z,49.1
2022-09-07T08:56:04.468Z,48.9
2022-09-07T08:57:22.687Z,49.0
2022-09-07T08:58:26.682Z,49.0
2022-09-07T08:59:10.239Z,49.7
2022-09-07T09:00:04.644Z,49.4
2022-09-07T09:02:32.575Z,49.5
2022-09-07T09:03:30.556Z,49.4
2022-09-07T09:04:17.296Z,49.7
2022-09-07T09:05:17.385Z,49.6
2022-09-07T09:06:16.209Z,50.3
2022-09-07T09:07:20.159Z,50.5
2022-09-07T09:08:15.559Z,51.1
2022-09-07T09:09:17.646Z,51.1
2022-09-07T09:10:10.183Z,51.1
2022-09-07T09:11:10.134Z,50.7
2022-09-07T09:12:16.165Z,50.4
2022-09-07T09:13:05.763Z,50.4
2022-09-07T09:14:16.624Z,50.7
2022-09-07T09:15:13.453Z,50.8
2022-09-07T09:16:15.539Z,51.0
2022-09-07T09:17:08.648Z,51.0
2022-09-07T09:18:20.156Z,50.0
2022-09-07T09:19:11.196Z,50.0
2022-09-07T09:20:17.646Z,50.4
2022-09-07T09:21:00.979Z,50.4
2022-09-07T09:22:10.443Z,50.8
2022-09-07T09:23:09.448Z,51.5
2022-09-07T09:24:11.239Z,50.9
2022-09-07T09:25:11.198Z,50.1
2022-09-07T09:26:09.961Z,50.1
2022-09-07T09:27:00.260Z,49.6
2022-09-07T09:28:00.330Z,49.9
2022-09-07T09:29:16.018Z,49.8
2022-09-07T09:30:00.232Z,49.8
2022-09-07T09:31:00.424Z,50.1
2022-09-07T09:32:20.125Z,50.3
2022-09-07T09:33:12.965Z,50.6
2022-09-07T09:34:10.240Z,50.6
2022-09-07T09:35:01.737Z,50.7
2022-09-07T09:36:00.894Z,51.0
2022-09-07T09:37:00.240Z,50.6
2022-09-07T09:38:00.848Z,51.0
2022-09-07T09:39:00.251Z,51.4
2022-09-07T09:40:02.766Z,51.6
2022-09-07T09:41:11.307Z,51.9
2022-09-07T09:42:10.169Z,52.6
2022-09-07T09:43:02.289Z,52.5
2022-09-07T09:44:00.519Z,52.7
2022-09-07T09:45:13.489Z,52.9
2022-09-07T09:46:14.041Z,52.9
2022-09-07T09:47:31.105Z,52.8
2022-09-07T09:48:07.484Z,52.6
2022-09-07T09:49:16.632Z,52.4
2022-09-07T09:50:04.102Z,52.4
2022-09-07T09:53:01.473Z,52.9
2022-09-07T09:54:14.078Z,52.1
2022-09-07T09:55:30.498Z,52.1
2022-09-07T09:56:02.804Z,52.0
2022-09-07T09:57:00.235Z,52.2
2022-09-07T10:00:04.205Z,52.7
2022-09-07T10:01:25.668Z,52.9
2022-09-07T10:04:22.626Z,52.6
2022-09-07T10:05:00.270Z,52.6
2022-09-07T10:06:04.004Z,52.6
2022-09-07T10:07:20.130Z,51.9
2022-09-07T10:08:00.803Z,51.9
2022-09-07T10:09:01.278Z,51.9
2022-09-07T10:10:00.342Z,52.5
2022-09-07T10:11:09.449Z,52.3
2022-09-07T10:12:08.160Z,52.3
2022-09-07T10:13:00.262Z,52.3
2022-09-07T10:14:00.271Z,52.3
2022-09-07T10:15:02.146Z,52.2
2022-09-07T10:16:03.948Z,52.2
2022-09-07T10:17:10.409Z,51.9
2022-09-07T10:18:03.871Z,51.9
2022-09-07T10:19:00.419Z,52.2
2022-09-07T10:20:13.456Z,52.3
2022-09-07T10:21:11.623Z,52.3
2022-09-07T10:22:04.233Z,51.9
2022-09-07T10:23:01.155Z,51.7
2022-09-07T10:24:07.660Z,51.8
2022-09-07T10:25:02.492Z,51.9
2022-09-07T10:26:19.641Z,52.4
2022-09-07T10:27:00.294Z,52.4
2022-09-07T10:28:05.508Z,52.8
2022-09-07T10:29:10.578Z,51.7
2022-09-07T10:30:02.616Z,51.9
2022-09-07T10:31:15.045Z,51.9
2022-09-07T10:32:15.325Z,52.1
2022-09-07T10:33:06.203Z,52.1
2022-09-07T10:34:26.866Z,51.8
2022-09-07T10:35:05.866Z,51.2
2022-09-07T10:36:14.115Z,51.7
2022-09-07T10:37:03.887Z,51.7
2022-09-07T10:38:10.198Z,51.3
2022-09-07T10:39:05.784Z,51.9
2022-09-07T10:40:12.870Z,51.4
2022-09-07T10:41:04.886Z,51.4
2022-09-07T10:42:13.470Z,51.7
2022-09-07T10:43:22.719Z,51.7
2022-09-07T10:44:03.473Z,52.5
2022-09-07T10:45:13.432Z,51.1
2022-09-07T10:46:11.306Z,51.1
2022-09-07T10:47:11.457Z,51.3
2022-09-07T10:48:18.364Z,50.8
2022-09-07T10:49:16.900Z,50.6
2022-09-07T10:50:22.753Z,50.6
2022-09-07T10:51:13.509Z,50.4
2022-09-07T10:52:08.351Z,50.8
2022-09-07T10:53:38.957Z,50.9
2022-09-07T10:54:31.487Z,50.9
2022-09-07T10:55:10.100Z,50.6
2022-09-07T10:56:19.887Z,50.4
2022-09-07T10:57:20.129Z,50.7
2022-09-07T10:58:11.183Z,50.7
2022-09-07T10:59:20.127Z,50.8
2022-09-07T11:00:13.429Z,50.9
2022-09-07T11:01:11.512Z,50.9
2022-09-07T11:02:01.229Z,50.7
2022-09-07T11:03:26.114Z,50.7
2022-09-07T11:04:04.609Z,50.5
2022-09-07T11:05:20.154Z,50.6
2022-09-07T11:06:11.004Z,50.6
2022-09-07T11:07:15.736Z,50.2
2022-09-07T11:08:13.436Z,50.2
2022-09-07T11:09:18.821Z,50.2
2022-09-07T11:10:17.540Z,50.8
2022-09-07T11:11:11.230Z,50.8
2022-09-07T11:12:04.556Z,50.8
2022-09-07T11:13:04.720Z,50.4
2022-09-07T11:14:12.877Z,50.4
2022-09-07T11:15:13.225Z,50.3
2022-09-07T11:16:05.364Z,50.3
2022-09-07T11:17:04.013Z,50.3
2022-09-07T11:18:06.076Z,50.7
2022-09-07T11:19:35.822Z,50.3
2022-09-07T11:20:13.663Z,50.8
2022-09-07T11:21:03.277Z,50.8
2022-09-07T11:22:11.290Z,50.5
2022-09-07T11:23:14.655Z,50.1
2022-09-07T11:24:08.679Z,50.1
2022-09-07T11:25:31.236Z,50.4
2022-09-07T11:26:05.717Z,50.0
2022-09-07T11:27:07.758Z,50.5
2022-09-07T11:28:12.269Z,50.3
2022-09-07T11:29:30.475Z,50.2
2022-09-07T11:30:12.368Z,50.0
2022-09-07T11:31:07.158Z,50.0
2022-09-07T11:32:11.782Z,49.7
2022-09-07T11:33:12.446Z,50.0
2022-09-07T11:34:25.752Z,50.0
2022-09-07T11:35:06.083Z,49.8
2022-09-07T11:36:13.339Z,50.1
2022-09-07T11:37:07.142Z,50.1
2022-09-07T11:38:11.690Z,50.4
2022-09-07T11:39:06.694Z,50.9
2022-09-07T11:40:13.188Z,49.9
2022-09-07T11:41:09.389Z,49.9
2022-09-07T11:42:42.804Z,49.7
2022-09-07T11:43:20.130Z,49.9
2022-09-07T11:44:20.169Z,50.3
2022-09-07T11:45:11.291Z,50.3
2022-09-07T11:46:06.577Z,49.4
2022-09-07T11:47:08.742Z,49.8
2022-09-07T11:48:06.612Z,49.7
2022-09-07T11:49:00.255Z,49.9
2022-09-07T11:50:00.408Z,50.1
2022-09-07T11:51:07.669Z,50.0
2022-09-07T11:52:05.299Z,50.2
2022-09-07T11:53:16.419Z,49.9
2022-09-07T11:54:07.558Z,49.9
2022-09-07T11:55:05.573Z,50.1
2022-09-07T11:56:05.160Z,50.5
2022-09-07T11:57:13.448Z,50.2
2022-09-07T11:58:17.541Z,50.4
2022-09-07T11:59:10.169Z,50.4
2022-09-07T12:00:11.276Z,50.5
2022-09-07T12:01:17.487Z,49.6
2022-09-07T12:02:10.197Z,49.6
2022-09-07T12:03:22.785Z,49.7
2022-09-07T12:04:04.616Z,49.7
2022-09-07T12:05:20.165Z,50.0
2022-09-07T12:06:07.625Z,50.0
2022-09-07T12:07:20.147Z,50.1
2022-09-07T12:08:10.177Z,50.1
2022-09-07T12:09:11.217Z,50.4
2022-09-07T12:10:13.461Z,50.0
2022-09-07T12:11:18.147Z,50.1
2022-09-07T12:12:10.175Z,50.1
2022-09-07T12:13:16.565Z,49.9
2022-09-07T12:14:20.129Z,50.1
2022-09-07T12:15:11.198Z,50.1
2022-09-07T12:16:10.218Z,50.1
2022-09-07T12:17:14.347Z,50.1
2022-09-07T12:18:10.172Z,50.1
2022-09-07T12:19:19.130Z,50.2
2022-09-07T12:20:11.887Z,50.2
2022-09-07T12:21:00.449Z,50.3
2022-09-07T12:22:00.276Z,50.2
2022-09-07T12:23:05.199Z,50.1
2022-09-07T12:24:00.361Z,49.9
2022-09-07T12:25:07.762Z,49.9
2022-09-07T12:26:20.127Z,50.1
2022-09-07T12:27:01.446Z,50.1
2022-09-07T12:28:00.446Z,50.1
2022-09-07T12:29:00.232Z,50.1
2022-09-07T12:30:00.214Z,50.1
2022-09-07T12:31:02.462Z,50.0
2022-09-07T12:32:52.704Z,50.1
2022-09-07T12:33:02.006Z,50.4
2022-09-07T12:34:20.154Z,50.1
2022-09-07T12:35:00.715Z,50.1
2022-09-07T12:36:01.928Z,50.0
2022-09-07T12:37:02.130Z,50.3
2022-09-07T12:38:03.104Z,50.8
2022-09-07T12:39:04.175Z,50.9
2022-09-07T12:40:20.166Z,50.2
2022-09-07T12:41:01.655Z,50.2
2022-09-07T12:42:34.104Z,50.0
2022-09-07T12:43:11.178Z,50.0
2022-09-07T12:44:05.836Z,50.0
2022-09-07T12:45:20.134Z,50.2
2022-09-07T12:46:00.813Z,50.2
2022-09-07T12:47:10.167Z,49.8
2022-09-07T12:48:16.154Z,50.2
2022-09-07T12:49:13.486Z,50.1
2022-09-07T12:50:10.252Z,50.1
2022-09-07T12:51:10.915Z,50.0
2022-09-07T12:52:14.210Z,50.1
2022-09-07T12:53:20.132Z,50.8
2022-09-07T12:54:20.131Z,50.2
2022-09-07T12:55:27.238Z,50.2
2022-09-07T12:56:16.291Z,50.4
2022-09-07T12:57:30.710Z,50.4
2022-09-07T12:58:13.463Z,50.1
2022-09-07T12:59:20.207Z,50.3
2022-09-07T13:00:10.282Z,50.3
2022-09-07T13:01:12.108Z,50.5
2022-09-07T13:02:20.244Z,50.2
2022-09-07T13:04:17.245Z,50.4
2022-09-07T13:05:15.752Z,50.4
2022-09-07T13:07:01.625Z,50.2
2022-09-07T13:07:17.552Z,50.5
2022-09-07T13:08:16.495Z,50.5
2022-09-07T13:09:20.129Z,50.4
2022-09-07T13:10:03.300Z,50.4
2022-09-07T13:11:20.148Z,50.3
2022-09-07T13:12:52.914Z,50.3
2022-09-07T13:13:02.972Z,50.3
2022-09-07T13:14:04.732Z,50.3
2022-09-07T13:15:00.652Z,50.3
2022-09-07T13:16:00.265Z,50.4
2022-09-07T13:17:20.161Z,50.5
2022-09-07T13:18:00.480Z,50.5
2022-09-07T13:19:02.629Z,50.6
2022-09-07T13:20:01.154Z,50.3
2022-09-07T13:21:07.564Z,50.6
2022-09-07T13:22:01.467Z,50.3
2022-09-07T13:23:11.843Z,50.3
2022-09-07T13:25:11.589Z,50.7
2022-09-07T13:26:02.368Z,50.5
2022-09-07T13:27:04.518Z,50.6
2022-09-07T13:28:20.123Z,50.3
2022-09-07T13:29:03.325Z,50.3
2022-09-07T13:30:03.368Z,49.9
2022-09-07T13:31:10.255Z,50.2
2022-09-07T13:32:08.935Z,50.5
2022-09-07T13:33:20.131Z,50.2
2022-09-07T13:34:20.125Z,50.3
2022-09-07T13:35:01.238Z,50.3
2022-09-07T13:36:02.590Z,50.3
2022-09-07T13:37:02.244Z,50.5
2022-09-07T13:38:02.517Z,50.4
2022-09-07T13:39:00.561Z,50.5
2022-09-07T13:40:02.746Z,50.6
2022-09-07T13:41:15.053Z,50.7
2022-09-07T13:42:00.552Z,50.7
2022-09-07T13:43:02.395Z,50.6